createdAt,value
2018-11-02T00:04:20.456Z,11.00
2018-11-02T00:09:16.543Z,11.04
2018-11-02T00:14:12.214Z,11.17
2018-11-02T00:19:08.023Z,11.05
2018-11-02T00:24:03.673Z,11.22
2018-11-02T00:28:59.507Z,11.18
2018-11-02T00:33:56.380Z,11.17
2018-11-02T00:38:52.934Z,11.14
2018-11-02T00:43:48.523Z,11.22
2018-11-02T00:48:45.297Z,11.18
2018-11-02T00:53:40.830Z,11.33
2018-11-02T00:58:36.727Z,11.36
2018-11-02T01:03:32.665Z,11.27
2018-11-02T01:08:28.443Z,11.40
2018-11-02T01:13:24.214Z,11.35
2018-11-02T01:18:20.706Z,11.43
2018-11-02T01:23:16.396Z,11.45
2018-11-02T01:28:11.726Z,11.37
2018-11-02T01:33:07.739Z,11.43
2018-11-02T01:38:03.649Z,11.36
2018-11-02T01:42:59.315Z,11.22
2018-11-02T01:47:55.985Z,10.99
2018-11-02T01:52:51.304Z,10.96
2018-11-02T01:57:48.037Z,10.93
2018-11-02T02:02:43.130Z,10.97
2018-11-02T02:07:39.580Z,11.00
2018-11-02T02:12:35.832Z,11.08
2018-11-02T02:17:32.149Z,11.08
2018-11-02T02:22:28.130Z,11.23
2018-11-02T02:27:23.937Z,11.12
2018-11-02T02:32:19.697Z,11.05
2018-11-02T02:37:15.511Z,11.19
2018-11-02T02:42:12.456Z,11.12
2018-11-02T02:47:07.803Z,11.17
2018-11-02T02:52:03.883Z,11.17
2018-11-02T02:56:59.597Z,11.33
2018-11-02T03:01:55.569Z,11.32
2018-11-02T03:06:51.533Z,11.36
2018-11-02T03:11:47.603Z,11.36
2018-11-02T03:16:43.301Z,11.44
2018-11-02T03:21:40.581Z,11.44
2018-11-02T03:26:36.471Z,11.43
2018-11-02T03:31:32.336Z,11.47
2018-11-02T03:36:27.888Z,11.41
2018-11-02T03:46:24.180Z,11.36
2018-11-02T03:51:19.672Z,11.48
2018-11-02T03:56:15.301Z,11.44
2018-11-02T04:01:11.269Z,11.37
2018-11-02T04:06:06.993Z,11.36
2018-11-02T04:11:03.857Z,11.37
2018-11-02T04:16:00.447Z,11.44
2018-11-02T04:20:55.784Z,11.36
2018-11-02T04:25:52.522Z,11.40
2018-11-02T04:30:48.077Z,11.44
2018-11-02T04:35:44.704Z,11.41
2018-11-02T04:40:41.306Z,11.32
2018-11-02T04:45:38.135Z,11.33
2018-11-02T04:50:33.813Z,11.27
2018-11-02T04:55:29.431Z,11.19
2018-11-02T05:00:26.976Z,11.10
2018-11-02T05:05:23.440Z,10.99
2018-11-02T05:10:18.852Z,11.02
2018-11-02T05:15:14.749Z,10.93
2018-11-02T05:20:10.633Z,10.81
2018-11-02T05:25:06.417Z,10.75
2018-11-02T05:30:02.033Z,10.74
2018-11-02T05:34:57.756Z,10.63
2018-11-02T05:39:53.420Z,10.68
2018-11-02T05:44:49.536Z,10.61
2018-11-02T05:49:45.550Z,10.71
2018-11-02T05:54:41.299Z,10.60
2018-11-02T05:59:37.175Z,10.57
2018-11-02T06:04:33.569Z,10.57
2018-11-02T06:09:29.368Z,10.51
2018-11-02T06:14:25.112Z,10.51
2018-11-02T06:19:20.825Z,10.53
2018-11-02T06:24:16.583Z,10.38
2018-11-02T06:29:12.283Z,10.37
2018-11-02T06:34:07.873Z,10.33
2018-11-02T06:39:03.481Z,10.40
2018-11-02T06:43:59.591Z,10.34
2018-11-02T06:48:55.447Z,10.41
2018-11-02T06:53:51.772Z,10.35
2018-11-02T06:58:48.129Z,10.35
2018-11-02T07:03:44.833Z,10.38
2018-11-02T07:08:40.443Z,10.38
2018-11-02T07:13:36.582Z,10.28
2018-11-02T07:18:32.198Z,10.31
2018-11-02T07:23:28.707Z,10.38
2018-11-02T07:28:24.320Z,10.25
2018-11-02T07:33:19.740Z,10.28
2018-11-02T07:38:15.916Z,10.28
2018-11-02T07:43:12.742Z,10.37
2018-11-02T07:48:08.181Z,10.37
2018-11-02T07:53:04.064Z,10.33
2018-11-02T07:58:00.519Z,10.37
2018-11-02T08:02:56.329Z,10.34
2018-11-02T08:07:52.044Z,10.44
2018-11-02T08:12:49.326Z,10.48
2018-11-02T08:17:45.754Z,10.46
2018-11-02T08:22:41.457Z,10.63
2018-11-02T08:27:37.219Z,10.63
2018-11-02T08:32:34.197Z,10.71
2018-11-02T08:37:30.814Z,10.68
2018-11-02T08:42:27.052Z,10.76
2018-11-02T08:47:24.010Z,10.82
2018-11-02T08:52:19.868Z,10.75
2018-11-02T08:57:15.779Z,10.78
2018-11-02T09:02:11.674Z,10.75
2018-11-02T09:07:07.994Z,10.74
2018-11-02T09:12:03.966Z,10.93
2018-11-02T09:17:00.970Z,10.99
2018-11-02T09:21:57.128Z,11.05
2018-11-02T09:26:52.687Z,11.00
2018-11-02T09:31:48.518Z,11.02
2018-11-02T09:36:44.517Z,10.94
2018-11-02T09:41:40.811Z,11.17
2018-11-02T09:46:36.753Z,11.29
2018-11-02T09:51:33.121Z,11.43
2018-11-02T09:56:29.231Z,11.60
2018-11-02T10:01:25.497Z,11.52
2018-11-02T10:06:21.982Z,11.41
2018-11-02T10:11:18.199Z,11.27
2018-11-02T10:16:14.414Z,11.08
2018-11-02T10:21:09.748Z,11.02
2018-11-02T10:26:06.078Z,11.10
2018-11-02T10:31:02.407Z,11.04
2018-11-02T10:35:58.083Z,11.11
2018-11-02T10:40:54.405Z,11.11
2018-11-02T10:45:50.300Z,11.22
2018-11-02T10:50:46.759Z,11.15
2018-11-02T10:55:43.700Z,11.30
2018-11-02T11:00:39.194Z,11.23
2018-11-02T11:05:35.213Z,11.23
2018-11-02T11:10:31.078Z,11.18
2018-11-02T11:15:26.755Z,11.30
2018-11-02T11:20:23.258Z,11.33
2018-11-02T11:25:18.958Z,11.26
2018-11-02T11:30:14.679Z,11.19
2018-11-02T11:35:10.775Z,11.08
2018-11-02T11:40:06.307Z,11.00
2018-11-02T11:45:01.969Z,10.86
2018-11-02T11:49:57.742Z,10.87
2018-11-02T11:54:54.003Z,10.94
2018-11-02T11:59:50.992Z,11.10
2018-11-02T12:04:46.880Z,11.19
2018-11-02T12:09:42.890Z,11.33
2018-11-02T12:14:38.570Z,11.17
2018-11-02T12:19:34.126Z,11.27
2018-11-02T12:24:30.256Z,11.36
2018-11-02T12:29:26.290Z,11.35
2018-11-02T12:34:22.181Z,11.33
2018-11-02T12:39:19.941Z,11.51
2018-11-02T12:44:15.481Z,11.63
2018-11-02T12:49:11.608Z,11.77
2018-11-02T12:54:08.201Z,11.68
2018-11-02T12:59:03.448Z,11.63
2018-11-02T13:03:59.932Z,11.44
2018-11-02T13:08:54.975Z,11.33
2018-11-02T13:13:50.627Z,11.35
2018-11-02T13:18:46.212Z,11.43
2018-11-02T13:23:41.847Z,11.30
2018-11-02T13:28:37.507Z,11.18
2018-11-02T13:33:33.433Z,11.26
2018-11-02T13:38:29.509Z,11.18
2018-11-02T13:43:25.204Z,11.19
2018-11-02T13:48:22.670Z,11.11
2018-11-02T13:53:18.188Z,11.07
2018-11-02T13:58:14.910Z,10.90
2018-11-02T14:03:10.532Z,10.94
2018-11-02T14:08:06.364Z,10.94
2018-11-02T14:13:02.186Z,10.93
2018-11-02T14:17:58.422Z,11.04
2018-11-02T14:22:54.307Z,11.11
2018-11-02T14:27:50.216Z,11.19
2018-11-02T14:32:47.734Z,11.33
2018-11-02T14:37:44.012Z,11.22
2018-11-02T14:42:39.670Z,11.12
2018-11-02T14:47:35.298Z,11.08
2018-11-02T14:52:30.996Z,11.04
2018-11-02T14:57:26.589Z,10.92
2018-11-02T15:02:22.032Z,10.90
2018-11-02T15:07:18.053Z,10.81
2018-11-02T15:12:13.724Z,10.90
2018-11-02T15:17:10.245Z,10.89
2018-11-02T15:22:05.999Z,10.89
2018-11-02T15:27:02.618Z,10.96
2018-11-02T15:31:58.139Z,10.96
2018-11-02T15:36:54.189Z,10.86
2018-11-02T15:41:50.374Z,10.78
2018-11-02T15:46:46.983Z,10.76
2018-11-02T15:51:42.217Z,10.49
2018-11-02T15:56:38.561Z,10.31
2018-11-02T16:01:34.239Z,10.15
2018-11-02T16:06:30.945Z,10.20
2018-11-02T16:11:26.550Z,10.04
2018-11-02T16:16:22.329Z," 9.91"
2018-11-02T16:21:17.862Z," 9.80"
2018-11-02T16:26:13.468Z," 9.66"
2018-11-02T16:31:09.238Z," 9.55"
2018-11-02T16:36:05.360Z," 9.55"
2018-11-02T16:41:00.981Z," 9.47"
2018-11-02T16:45:57.413Z," 9.43"
2018-11-02T16:50:52.773Z," 9.43"
2018-11-02T16:55:48.515Z," 9.32"
2018-11-02T17:00:44.516Z," 9.21"
2018-11-02T17:05:40.134Z," 9.19"
2018-11-02T17:10:35.918Z," 9.22"
2018-11-02T17:15:31.921Z," 9.19"
2018-11-02T17:20:27.325Z," 9.18"
2018-11-02T17:25:23.337Z," 9.06"
2018-11-02T17:30:18.908Z," 9.03"
2018-11-02T17:35:14.308Z," 8.95"
2018-11-02T17:40:09.984Z," 8.95"
2018-11-02T17:45:06.621Z," 8.91"
2018-11-02T17:50:02.063Z," 8.91"
2018-11-02T17:54:58.100Z," 8.79"
2018-11-02T17:59:53.916Z," 8.79"
2018-11-02T18:04:49.811Z," 8.74"
2018-11-02T18:09:46.245Z," 8.63"
2018-11-02T18:14:41.750Z," 8.60"
2018-11-02T18:19:38.092Z," 8.55"
2018-11-02T18:24:33.929Z," 8.51"
2018-11-02T18:29:29.401Z," 8.37"
2018-11-02T18:34:26.497Z," 8.23"
2018-11-02T18:39:22.965Z," 8.28"
2018-11-02T18:44:18.350Z," 8.20"
2018-11-02T18:49:14.159Z," 8.00"
2018-11-02T18:54:10.456Z," 8.06"
2018-11-02T18:59:05.953Z," 8.05"
2018-11-02T19:04:02.127Z," 7.90"
2018-11-02T19:08:57.593Z," 7.76"
2018-11-02T19:13:54.086Z," 7.66"
2018-11-02T19:18:49.284Z," 7.60"
2018-11-02T19:23:45.102Z," 7.60"
2018-11-02T19:28:40.837Z," 7.40"
2018-11-02T19:33:37.010Z," 7.28"
2018-11-02T19:38:32.500Z," 7.42"
2018-11-02T19:43:28.382Z," 7.32"
2018-11-02T19:48:24.443Z," 7.32"
2018-11-02T19:53:19.982Z," 7.33"
2018-11-02T19:58:15.851Z," 7.21"
2018-11-02T20:03:12.513Z," 7.15"
2018-11-02T20:08:09.169Z," 7.21"
2018-11-02T20:13:04.636Z," 7.21"
2018-11-02T20:18:01.009Z," 7.35"
2018-11-02T20:22:57.537Z," 7.29"
2018-11-02T20:27:53.009Z," 7.31"
2018-11-02T20:32:49.599Z," 7.14"
2018-11-02T20:37:46.278Z," 7.15"
2018-11-02T20:42:42.496Z," 7.15"
2018-11-02T20:47:38.803Z," 7.25"
2018-11-02T20:52:34.225Z," 7.11"
2018-11-02T20:57:31.167Z," 7.07"
2018-11-02T21:02:26.647Z," 7.06"
2018-11-02T21:07:23.213Z," 6.99"
2018-11-02T21:12:18.776Z," 6.88"
2018-11-02T21:17:15.257Z," 6.97"
2018-11-02T21:22:11.345Z," 6.77"
2018-11-02T21:27:07.029Z," 6.79"
2018-11-02T21:32:02.838Z," 6.74"
2018-11-02T21:36:58.765Z," 6.69"
2018-11-02T21:41:54.418Z," 6.67"
2018-11-02T21:46:50.503Z," 6.72"
2018-11-02T21:51:45.999Z," 6.66"
2018-11-02T21:56:41.787Z," 6.67"
2018-11-02T22:01:37.720Z," 6.66"
2018-11-02T22:06:33.249Z," 6.60"
2018-11-02T22:11:28.864Z," 6.41"
2018-11-02T22:16:24.699Z," 6.41"
2018-11-02T22:21:20.545Z," 6.36"
2018-11-02T22:26:16.267Z," 6.24"
2018-11-02T22:31:11.992Z," 6.24"
2018-11-02T22:36:07.426Z," 6.17"
2018-11-02T22:41:04.103Z," 6.04"
2018-11-02T22:45:59.559Z," 5.93"
2018-11-02T22:50:55.711Z," 5.94"
2018-11-02T22:55:51.047Z," 5.89"
2018-11-02T23:00:46.627Z," 5.86"
2018-11-02T23:10:42.194Z," 5.86"
2018-11-02T23:15:37.947Z," 5.84"
2018-11-02T23:20:33.534Z," 5.87"
2018-11-02T23:25:29.241Z," 5.83"
2018-11-02T23:30:25.840Z," 5.73"
2018-11-02T23:35:22.151Z," 5.72"
2018-11-02T23:40:18.306Z," 5.66"
2018-11-02T23:45:13.801Z," 5.64"
2018-11-02T23:50:09.470Z," 5.61"
2018-11-02T23:55:05.133Z," 5.65"
